Time;durP1;ratioP1;P1;durP2;ratioP2;P2;SDS_P1;SDS_P2;PMS_P1;PMS_P2;Temp;Humidity;BMP_temperature;BMP_pressure;BME280_temperature;BME280_humidity;BME280_pressure;Samples;Min_cycle;Max_cycle;Signal;HPM_P1;HPM_P2
2022/11/01 00:03:22;;;;;;;;;;;;;;;;;;10307514;28;20374;-75
2022/11/01 00:08:22;;;;;;;;;;;;;;;;;;10314154;28;19922;-78
2022/11/01 00:13:22;;;;;;;;;;;;;;;;;;10309222;28;19921;-77
2022/11/01 00:18:22;;;;;;;;;;;;;;;;;;10305409;28;20033;-77
2022/11/01 00:23:23;;;;;;;;;;;;;;;;;;10304947;28;19922;-78
2022/11/01 00:28:23;;;;;;;;;;;;;;;;;;10277860;28;20389;-76
2022/11/01 00:33:23;;;;;;;;;;;;;;;;;;10301304;28;19937;-75
2022/11/01 00:38:23;;;;;;;;;;;;;;;;;;10305776;28;19930;-77
2022/11/01 00:43:24;;;;;;;;;;;;;;;;;;10304883;28;19918;-76
2022/11/01 00:48:24;;;;;;;;;;;;;;;;;;10304872;28;19982;-78
2022/11/01 00:53:24;;;;;;;;;;;;;;;;;;10297365;28;19925;-77
2022/11/01 00:58:24;;;;;;;;;;;;;;;;;;10306926;28;19941;-77
2022/11/01 01:03:25;;;;;;;;;;;;;;;;;;10291428;28;19922;-77
2022/11/01 01:08:25;;;;;;;;;;;;;;;;;;10298895;28;20605;-75
2022/11/01 01:13:25;;;;;;;;;;;;;;;;;;10305950;28;19922;-76
2022/11/01 01:18:25;;;;;;;;;;;;;;;;;;10299607;28;20273;-76
2022/11/01 01:23:25;;;;;;;;;;;;;;;;;;10295710;28;19926;-75
2022/11/01 01:28:26;;;;;;;;;;;;;;;;;;10289865;28;20401;-75
2022/11/01 01:33:26;;;;;;;;;;;;;;;;;;10319573;28;19949;-76
2022/11/01 01:38:26;;;;;;;;;;;;;;;;;;10306591;28;19926;-76
2022/11/01 01:43:26;;;;;;;;;;;;;;;;;;10295111;28;20024;-75
2022/11/01 01:48:27;;;;;;;;;;;;;;;;;;10305317;28;19923;-75
2022/11/01 01:53:27;;;;;;;;;;;;;;;;;;10297328;28;19926;-75
2022/11/01 01:58:27;;;;;;;;;;;;;;;;;;10299458;28;20349;-74
2022/11/01 02:03:28;;;;;;;;;;;;;;;;;;10301262;28;19933;-76
2022/11/01 02:08:28;;;;;;;;;;;;;;;;;;10295862;28;19952;-77
2022/11/01 02:13:29;;;;;;;;;;;;;;;;;;10310205;28;19925;-75
2022/11/01 02:18:29;;;;;;;;;;;;;;;;;;10317753;28;20417;-77
2022/11/01 02:23:29;;;;;;;;;;;;;;;;;;10306547;28;19924;-77
2022/11/01 02:28:29;;;;;;;;;;;;;;;;;;10304202;28;20016;-77
2022/11/01 02:33:30;;;;;;;;;;;;;;;;;;10303997;28;20380;-75
2022/11/01 02:38:30;;;;;;;;;;;;;;;;;;10310186;28;19925;-76
2022/11/01 02:43:30;;;;;;;;;;;;;;;;;;10308724;28;20293;-76
2022/11/01 02:48:30;;;;;;;;;;;;;;;;;;10292339;28;19918;-77
2022/11/01 02:53:30;;;;;;;;;;;;;;;;;;10316245;28;19926;-76
2022/11/01 02:58:31;;;;;;;;;;;;;;;;;;10314113;28;19984;-76
2022/11/01 03:03:31;;;;;;;;;;;;;;;;;;10316930;28;19918;-74
2022/11/01 03:08:31;;;;;;;;;;;;;;;;;;10315646;28;19918;-75
2022/11/01 03:13:31;;;;;;;;;;;;;;;;;;10301599;28;20385;-77
2022/11/01 03:18:32;;;;;;;;;;;;;;;;;;10289683;28;20460;-77
2022/11/01 03:23:32;;;;;;;;;;;;;;;;;;10312246;28;19969;-76
2022/11/01 03:28:32;;;;;;;;;;;;;;;;;;10300152;28;19969;-79
2022/11/01 03:33:32;;;;;;;;;;;;;;;;;;10293278;28;19980;-81
2022/11/01 03:38:33;;;;;;;;;;;;;;;;;;10313575;28;20020;-78
2022/11/01 03:43:33;;;;;;;;;;;;;;;;;;10307672;28;20021;-81
2022/11/01 03:48:33;;;;;;;;;;;;;;;;;;10303291;28;20012;-78
2022/11/01 03:53:33;;;;;;;;;;;;;;;;;;10302114;28;20367;-79
2022/11/01 03:58:44;;;;;;;;;;;;;;;;;;10306486;28;19930;-75
2022/11/01 04:03:44;;;;;;;;;;;;;;;;;;10302634;28;19926;-75
2022/11/01 04:08:44;;;;;;;;;;;;;;;;;;10306171;28;20404;-76
2022/11/01 04:13:44;;;;;;;;;;;;;;;;;;10303808;28;20310;-75
2022/11/01 04:24:04;;;;;;;;;;;;;;;;;;10308237;28;20019;-76
2022/11/01 04:29:04;;;;;;;;;;;;;;;;;;10295322;28;20033;-76
2022/11/01 04:34:04;;;;;;;;;;;;;;;;;;10304437;28;19996;-77
2022/11/01 04:39:04;;;;;;;;;;;;;;;;;;10300682;28;20029;-75
2022/11/01 04:44:05;;;;;;;;;;;;;;;;;;10294800;28;20014;-77
2022/11/01 04:49:05;;;;;;;;;;;;;;;;;;10299765;28;20032;-76
2022/11/01 04:54:06;;;;;;;;;;;;;;;;;;10304110;28;19921;-77
2022/11/01 04:59:06;;;;;;;;;;;;;;;;;;10290145;28;19965;-74
2022/11/01 05:04:06;;;;;;;;;;;;;;;;;;10295686;28;19922;-77
2022/11/01 05:09:07;;;;;;;;;;;;;;;;;;10321864;28;20017;-80
2022/11/01 05:14:09;;;;;;;;;;;;;;;;;;10325113;28;20333;-77
2022/11/01 05:19:09;;;;;;;;;;;;;;;;;;10306076;28;19930;-75
2022/11/01 05:24:09;;;;;;;;;;;;;;;;;;10304644;28;19922;-77
2022/11/01 05:29:10;;;;;;;;;;;;;;;;;;10298003;28;19922;-75
2022/11/01 05:34:10;;;;;;;;;;;;;;;;;;10307625;28;19922;-76
2022/11/01 05:39:10;;;;;;;;;;;;;;;;;;10309526;28;20028;-76
2022/11/01 05:44:10;;;;;;;;;;;;;;;;;;10301297;28;20001;-75
2022/11/01 05:49:10;;;;;;;;;;;;;;;;;;10309808;28;20374;-75
2022/11/01 05:54:11;;;;;;;;;;;;;;;;;;10307967;28;20393;-77
2022/11/01 05:59:12;;;;;;;;;;;;;;;;;;10296493;28;20301;-79
2022/11/01 06:04:13;;;;;;;;;;;;;;;;;;10291133;28;20255;-77
2022/11/01 06:09:14;;;;;;;;;;;;;;;;;;10311327;28;19922;-76
2022/11/01 06:14:14;;;;;;;;;;;;;;;;;;10333259;28;19932;-77
2022/11/01 06:19:14;;;;;;;;;;;;;;;;;;10313695;28;20298;-84
2022/11/01 06:24:15;;;;;;;;;;;;;;;;;;10313220;28;19918;-79
2022/11/01 06:29:16;;;;;;;;;;;;;;;;;;10313444;28;19929;-77
2022/11/01 06:34:17;;;;;;;;;;;;;;;;;;10305027;28;20068;-75
2022/11/01 06:39:17;;;;;;;;;;;;;;;;;;10311033;28;19988;-78
2022/11/01 06:44:17;;;;;;;;;;;;;;;;;;10304360;28;19938;-74
2022/11/01 06:49:18;;;;;;;;;;;;;;;;;;10310490;28;19930;-76
2022/11/01 06:54:18;;;;;;;;;;;;;;;;;;10288040;28;19950;-76
2022/11/01 06:59:18;;;;;;;;;;;;;;;;;;10307933;28;19937;-76
2022/11/01 07:04:20;;;;;;;;;;;;;;;;;;10306435;28;19921;-77
2022/11/01 07:09:20;;;;;;;;;;;;;;;;;;10305908;28;19917;-76
2022/11/01 07:14:20;;;;;;;;;;;;;;;;;;10287167;28;19929;-76
2022/11/01 07:19:22;;;;;;;;;;;;;;;;;;10306935;28;19926;-75
2022/11/01 07:24:22;;;;;;;;;;;;;;;;;;10301235;28;19969;-79
2022/11/01 07:29:22;;;;;;;;;;;;;;;;;;10303386;28;20306;-77
2022/11/01 07:34:23;;;;;;;;;;;;;;;;;;10301480;28;19921;-76
2022/11/01 07:39:23;;;;;;;;;;;;;;;;;;10297820;28;19999;-77
2022/11/01 07:44:23;;;;;;;;;;;;;;;;;;10299329;28;20072;-77
2022/11/01 07:49:24;;;;;;;;;;;;;;;;;;10308895;28;19922;-78
2022/11/01 07:54:24;;;;;;;;;;;;;;;;;;10311349;28;19918;-77
2022/11/01 07:59:24;;;;;;;;;;;;;;;;;;10312272;28;20413;-77
2022/11/01 08:04:24;;;;;;;;;;;;;;;;;;10307108;28;20691;-74
2022/11/01 08:09:25;;;;;;;;;;;;;;;;;;10322215;28;19922;-78
2022/11/01 08:14:25;;;;;;;;;;;;;;;;;;10315095;28;19928;-77
2022/11/01 08:19:25;;;;;;;;;;;;;;;;;;10301564;28;19930;-78
2022/11/01 08:24:25;;;;;;;;;;;;;;;;;;10299532;28;19926;-76
2022/11/01 08:29:26;;;;;;;;;;;;;;;;;;10284046;28;19922;-80
2022/11/01 08:34:26;;;;;;;;;;;;;;;;;;10310459;28;20271;-78
2022/11/01 08:39:26;;;;;;;;;;;;;;;;;;10300150;28;19934;-79
2022/11/01 08:44:26;;;;;;;;;;;;;;;;;;10316102;28;19925;-77
2022/11/01 08:49:27;;;;;;;;;;;;;;;;;;10291251;28;19933;-79
2022/11/01 08:54:27;;;;;;;;;;;;;;;;;;10300218;28;19922;-76
2022/11/01 08:59:27;;;;;;;;;;;;;;;;;;10305748;28;20359;-77
2022/11/01 09:04:27;;;;;;;;;;;;;;;;;;10298648;28;20405;-77
2022/11/01 09:09:28;;;;;;;;;;;;;;;;;;10309535;28;19973;-78
2022/11/01 09:14:28;;;;;;;;;;;;;;;;;;10310289;28;19918;-78
2022/11/01 09:19:29;;;;;;;;;;;;;;;;;;10307536;28;20401;-77
2022/11/01 09:24:29;;;;;;;;;;;;;;;;;;10314328;28;20378;-77
2022/11/01 09:29:29;;;;;;;;;;;;;;;;;;10301391;28;19918;-78
2022/11/01 09:34:30;;;;;;;;;;;;;;;;;;10310894;28;20469;-77
2022/11/01 09:39:30;;;;;;;;;;;;;;;;;;10296250;28;19926;-78
2022/11/01 09:44:30;;;;;;;;;;;;;;;;;;10308041;28;19922;-78
2022/11/01 09:49:30;;;;;;;;;;;;;;;;;;10312490;28;20016;-79
2022/11/01 09:54:30;;;;;;;;;;;;;;;;;;10309030;28;20505;-79
2022/11/01 09:59:31;;;;;;;;;;;;;;;;;;10311863;28;19975;-77
2022/11/01 10:04:31;;;;;;;;;;;;;;;;;;10301843;28;19922;-77
2022/11/01 10:09:31;;;;;;;;;;;;;;;;;;10289057;28;20384;-79
2022/11/01 10:14:31;;;;;;;;;;;;;;;;;;10311463;28;20013;-78
2022/11/01 10:19:34;;;;;;;;;;;;;;;;;;10318413;28;20400;-77
2022/11/01 10:24:34;;;;;;;;;;;;;;;;;;10290526;28;19922;-78
2022/11/01 10:29:34;;;;;;;;;;;;;;;;;;10284577;28;20004;-78
2022/11/01 10:34:35;;;;;;;;;;;;;;;;;;10305160;28;20382;-78
2022/11/01 10:39:35;;;;;;;;;;;;;;;;;;10287558;28;20298;-79
2022/11/01 10:44:37;;;;;;;;;;;;;;;;;;10306883;28;19922;-78
2022/11/01 10:49:37;;;;;;;;;;;;;;;;;;10311775;28;19941;-78
2022/11/01 10:54:38;;;;;;;;;;;;;;;;;;10324641;28;19934;-80
2022/11/01 10:59:38;;;;;;;;;;;;;;;;;;10324830;28;20044;-80
2022/11/01 11:04:38;;;;;;;;;;;;;;;;;;10316847;28;19921;-78
2022/11/01 11:09:38;;;;;;;;;;;;;;;;;;10294436;28;20366;-78
2022/11/01 11:14:39;;;;;;;;;;;;;;;;;;10314443;28;19977;-76
2022/11/01 11:19:42;;;;;;;;;;;;;;;;;;10322770;28;20233;-78
2022/11/01 11:24:42;;;;;;;;;;;;;;;;;;10332649;28;19933;-77
2022/11/01 11:29:47;;;;;;;;;;;;;;;;;;10293119;28;20440;-78
2022/11/01 11:34:47;;;;;;;;;;;;;;;;;;10311439;28;19922;-78
2022/11/01 11:39:48;;;;;;;;;;;;;;;;;;10319512;28;19945;-78
2022/11/01 11:44:48;;;;;;;;;;;;;;;;;;10302820;28;19926;-79
2022/11/01 11:49:52;;;;;;;;;;;;;;;;;;10309533;28;19924;-78
2022/11/01 11:54:52;;;;;;;;;;;;;;;;;;10282904;28;20006;-81
2022/11/01 11:59:52;;;;;;;;;;;;;;;;;;10309248;28;19929;-79
2022/11/01 12:04:53;;;;;;;;;;;;;;;;;;10295960;28;19924;-79
2022/11/01 12:09:54;;;;;;;;;;;;;;;;;;10310998;28;20661;-79
2022/11/01 12:14:54;;;;;;;;;;;;;;;;;;10311889;28;19922;-78
2022/11/01 12:19:54;;;;;;;;;;;;;;;;;;10297853;28;19933;-77
2022/11/01 12:24:54;;;;;;;;;;;;;;;;;;10309744;28;19933;-78
2022/11/01 12:29:55;;;;;;;;;;;;;;;;;;10296266;28;19929;-79
2022/11/01 12:34:55;;;;;;;;;;;;;;;;;;10312931;28;20003;-78
2022/11/01 12:39:55;;;;;;;;;;;;;;;;;;10308050;28;19933;-77
2022/11/01 12:44:56;;;;;;;;;;;;;;;;;;10310871;28;20021;-77
2022/11/01 12:49:56;;;;;;;;;;;;;;;;;;10302576;28;19922;-79
2022/11/01 12:54:56;;;;;;;;;;;;;;;;;;10297865;28;20429;-78
2022/11/01 12:59:56;;;;;;;;;;;;;;;;;;10305564;28;19926;-79
2022/11/01 13:04:57;;;;;;;;;;;;;;;;;;10299731;28;19926;-77
2022/11/01 13:10:01;;;;;;;;;;;;;;;;;;10283227;28;19925;-78
2022/11/01 13:15:01;;;;;;;;;;;;;;;;;;10283117;28;19932;-78
2022/11/01 13:20:04;;;;;;;;;;;;;;;;;;10299129;28;19930;-77
2022/11/01 13:25:04;;;;;;;;;;;;;;;;;;10308713;28;19959;-79
2022/11/01 13:30:05;;;;;;;;;;;;;;;;;;10304575;28;20013;-79
2022/11/01 13:35:05;;;;;;;;;;;;;;;;;;10303867;28;19937;-83
2022/11/01 13:40:05;;;;;;;;;;;;;;;;;;10279437;28;19933;-77
2022/11/01 13:45:06;;;;;;;;;;;;;;;;;;10288709;28;19972;-78
2022/11/01 13:50:06;;;;;;;;;;;;;;;;;;10308327;28;19922;-79
2022/11/01 13:55:06;;;;;;;;;;;;;;;;;;10343505;28;19914;-78
2022/11/01 14:00:08;;;;;;;;;;;;;;;;;;10317180;28;20070;-77
2022/11/01 14:05:15;;;;;;;;;;;;;;;;;;10314600;28;20104;-78
2022/11/01 14:10:15;;;;;;;;;;;;;;;;;;10318131;28;19932;-77
2022/11/01 14:15:16;;;;;;;;;;;;;;;;;;10309385;28;20037;-77
2022/11/01 14:20:16;;;;;;;;;;;;;;;;;;10322477;28;20332;-78
2022/11/01 14:25:16;;;;;;;;;;;;;;;;;;10315482;28;19948;-79
2022/11/01 14:30:17;;;;;;;;;;;;;;;;;;10310950;28;19930;-78
2022/11/01 14:35:19;;;;;;;;;;;;;;;;;;10307640;28;19918;-78
2022/11/01 14:40:19;;;;;;;;;;;;;;;;;;10318094;28;19952;-81
2022/11/01 14:45:20;;;;;;;;;;;;;;;;;;10283834;28;19918;-78
2022/11/01 14:50:20;;;;;;;;;;;;;;;;;;10314713;28;20330;-77
2022/11/01 14:55:21;;;;;;;;;;;;;;;;;;10285146;28;19968;-79
2022/11/01 15:00:21;;;;;;;;;;;;;;;;;;10314052;28;19977;-78
2022/11/01 15:05:22;;;;;;;;;;;;;;;;;;10303935;28;19961;-79
2022/11/01 15:10:22;;;;;;;;;;;;;;;;;;10307816;28;19961;-79
2022/11/01 15:15:23;;;;;;;;;;;;;;;;;;10306193;28;19973;-77
2022/11/01 15:20:23;;;;;;;;;;;;;;;;;;10289613;28;19928;-79
2022/11/01 15:25:25;;;;;;;;;;;;;;;;;;10297031;28;20029;-78
2022/11/01 15:30:25;;;;;;;;;;;;;;;;;;10301435;28;19969;-79
2022/11/01 15:35:25;;;;;;;;;;;;;;;;;;10321742;28;20393;-78
2022/11/01 15:40:26;;;;;;;;;;;;;;;;;;10329976;28;19961;-78
2022/11/01 15:45:26;;;;;;;;;;;;;;;;;;10314144;28;19917;-78
2022/11/01 15:50:27;;;;;;;;;;;;;;;;;;10301165;28;19922;-79
2022/11/01 15:55:29;;;;;;;;;;;;;;;;;;10304157;28;19925;-80
2022/11/01 16:00:30;;;;;;;;;;;;;;;;;;10307953;28;19965;-77
2022/11/01 16:05:31;;;;;;;;;;;;;;;;;;10288720;28;19922;-79
2022/11/01 16:10:33;;;;;;;;;;;;;;;;;;10320645;28;19929;-79
2022/11/01 16:15:36;;;;;;;;;;;;;;;;;;10297175;28;19937;-79
2022/11/01 16:20:37;;;;;;;;;;;;;;;;;;10304149;28;19930;-77
2022/11/01 16:25:38;;;;;;;;;;;;;;;;;;10290117;28;19926;-80
2022/11/01 16:30:39;;;;;;;;;;;;;;;;;;10307079;28;20433;-81
2022/11/01 16:35:40;;;;;;;;;;;;;;;;;;10314608;28;19924;-77
2022/11/01 16:40:40;;;;;;;;;;;;;;;;;;10307391;28;20016;-80
2022/11/01 16:45:40;;;;;;;;;;;;;;;;;;10347205;28;19933;-81
2022/11/01 16:50:41;;;;;;;;;;;;;;;;;;10354174;28;19973;-77
2022/11/01 16:55:41;;;;;;;;;;;;;;;;;;10338349;28;20375;-79
2022/11/01 17:00:41;;;;;;;;;;;;;;;;;;10320009;28;20013;-79
2022/11/01 17:05:41;;;;;;;;;;;;;;;;;;10318234;28;19919;-79
2022/11/01 17:10:42;;;;;;;;;;;;;;;;;;10298046;28;19924;-77
2022/11/01 17:15:42;;;;;;;;;;;;;;;;;;10342630;28;19941;-78
2022/11/01 17:20:42;;;;;;;;;;;;;;;;;;10316695;28;19930;-79
2022/11/01 17:25:42;;;;;;;;;;;;;;;;;;10318618;28;19921;-78
2022/11/01 17:30:43;;;;;;;;;;;;;;;;;;10307399;28;19937;-77
2022/11/01 17:35:43;;;;;;;;;;;;;;;;;;10305044;28;19941;-80
2022/11/01 17:40:44;;;;;;;;;;;;;;;;;;10315082;28;20376;-76
2022/11/01 17:45:44;;;;;;;;;;;;;;;;;;10308967;28;19922;-77
2022/11/01 17:50:45;;;;;;;;;;;;;;;;;;10309622;28;19929;-81
2022/11/01 17:55:45;;;;;;;;;;;;;;;;;;10298794;28;19922;-78
2022/11/01 18:00:46;;;;;;;;;;;;;;;;;;10292297;28;19930;-78
2022/11/01 18:05:46;;;;;;;;;;;;;;;;;;10312523;28;19918;-79
2022/11/01 18:10:46;;;;;;;;;;;;;;;;;;10317820;28;20431;-79
2022/11/01 18:15:47;;;;;;;;;;;;;;;;;;10314782;28;20294;-79
2022/11/01 18:20:47;;;;;;;;;;;;;;;;;;10314426;28;19933;-77
2022/11/01 18:25:47;;;;;;;;;;;;;;;;;;10288529;28;20489;-79
2022/11/01 18:30:47;;;;;;;;;;;;;;;;;;10310209;28;19929;-79
2022/11/01 18:35:48;;;;;;;;;;;;;;;;;;10318712;28;19922;-78
2022/11/01 18:40:48;;;;;;;;;;;;;;;;;;10316516;28;20298;-76
2022/11/01 18:45:49;;;;;;;;;;;;;;;;;;10313924;28;20377;-80
2022/11/01 18:50:49;;;;;;;;;;;;;;;;;;10288690;28;19966;-81
2022/11/01 18:55:50;;;;;;;;;;;;;;;;;;10287652;28;19922;-80
2022/11/01 19:00:52;;;;;;;;;;;;;;;;;;10313796;28;19926;-81
2022/11/01 19:05:52;;;;;;;;;;;;;;;;;;10334792;28;19993;-87
2022/11/01 19:10:53;;;;;;;;;;;;;;;;;;10482192;23;19916;-85
2022/11/01 19:15:56;;;;;;;;;;;;;;;;;;10422584;28;19929;-83
2022/11/01 19:20:56;;;;;;;;;;;;;;;;;;10380020;28;19940;-81
2022/11/01 19:25:58;;;;;;;;;;;;;;;;;;10392775;28;19943;-80
2022/11/01 19:30:58;;;;;;;;;;;;;;;;;;10403843;28;19917;-82
2022/11/01 19:35:59;;;;;;;;;;;;;;;;;;10390372;28;19931;-85
2022/11/01 19:40:59;;;;;;;;;;;;;;;;;;10430317;28;19933;-81
2022/11/01 19:46:00;;;;;;;;;;;;;;;;;;10417581;28;19913;-81
2022/11/01 19:51:00;;;;;;;;;;;;;;;;;;10408515;28;20003;-80
2022/11/01 19:56:02;;;;;;;;;;;;;;;;;;10384436;28;19921;-81
2022/11/01 20:01:03;;;;;;;;;;;;;;;;;;10372454;28;19993;-82
2022/11/01 20:06:03;;;;;;;;;;;;;;;;;;10432033;28;19917;-83
2022/11/01 20:11:04;;;;;;;;;;;;;;;;;;10410647;28;20019;-83
2022/11/01 20:16:04;;;;;;;;;;;;;;;;;;10423813;28;19918;-82
2022/11/01 20:21:07;;;;;;;;;;;;;;;;;;10421058;28;19929;-83
2022/11/01 20:26:08;;;;;;;;;;;;;;;;;;10385576;28;19929;-83
2022/11/01 20:31:09;;;;;;;;;;;;;;;;;;10389080;28;19921;-83
2022/11/01 20:36:09;;;;;;;;;;;;;;;;;;10375302;28;19993;-81
2022/11/01 20:41:11;;;;;;;;;;;;;;;;;;10400369;28;20000;-81
2022/11/01 20:46:12;;;;;;;;;;;;;;;;;;10384671;28;19964;-81
2022/11/01 20:51:13;;;;;;;;;;;;;;;;;;10379420;28;19957;-81
2022/11/01 20:56:13;;;;;;;;;;;;;;;;;;10385315;28;19964;-82
2022/11/01 21:01:16;;;;;;;;;;;;;;;;;;10369488;28;20379;-81
2022/11/01 21:06:17;;;;;;;;;;;;;;;;;;10385309;28;19928;-81
2022/11/01 21:11:17;;;;;;;;;;;;;;;;;;10392541;28;19921;-81
2022/11/01 21:16:17;;;;;;;;;;;;;;;;;;10391496;28;19922;-83
2022/11/01 21:21:18;;;;;;;;;;;;;;;;;;10388267;28;19929;-81
2022/11/01 21:26:18;;;;;;;;;;;;;;;;;;10399924;28;20357;-80
2022/11/01 21:31:19;;;;;;;;;;;;;;;;;;10382400;28;19937;-80
2022/11/01 21:36:20;;;;;;;;;;;;;;;;;;10396235;28;19925;-82
2022/11/01 21:41:21;;;;;;;;;;;;;;;;;;10395503;28;19935;-82
2022/11/01 21:46:21;;;;;;;;;;;;;;;;;;10408695;28;20004;-81
2022/11/01 21:51:23;;;;;;;;;;;;;;;;;;10395464;28;19995;-80
2022/11/01 21:56:23;;;;;;;;;;;;;;;;;;10396229;28;20293;-80
2022/11/01 22:01:24;;;;;;;;;;;;;;;;;;10378510;28;19929;-82
2022/11/01 22:06:24;;;;;;;;;;;;;;;;;;10380749;28;19972;-79
2022/11/01 22:11:24;;;;;;;;;;;;;;;;;;10377969;28;20047;-80
2022/11/01 22:16:26;;;;;;;;;;;;;;;;;;10371375;28;20448;-81
2022/11/01 22:21:26;;;;;;;;;;;;;;;;;;10377981;28;20393;-79
2022/11/01 22:26:26;;;;;;;;;;;;;;;;;;10380615;28;19929;-79
2022/11/01 22:31:26;;;;;;;;;;;;;;;;;;10393395;28;19922;-80
2022/11/01 22:36:27;;;;;;;;;;;;;;;;;;10449624;28;19905;-83
2022/11/01 22:41:27;;;;;;;;;;;;;;;;;;10423863;28;19929;-81
2022/11/01 22:46:27;;;;;;;;;;;;;;;;;;10379035;28;19928;-81
2022/11/01 22:51:27;;;;;;;;;;;;;;;;;;10400399;28;19917;-81
2022/11/01 22:56:28;;;;;;;;;;;;;;;;;;10391066;28;20362;-82
2022/11/01 23:01:28;;;;;;;;;;;;;;;;;;10376423;28;19978;-82
2022/11/01 23:06:28;;;;;;;;;;;;;;;;;;10384004;28;19981;-82
2022/11/01 23:16:47;;;;;;;;;;;;;;;;;;10389762;28;19929;-80
2022/11/01 23:21:48;;;;;;;;;;;;;;;;;;10400523;28;20632;-82
2022/11/01 23:26:49;;;;;;;;;;;;;;;;;;10418859;28;19925;-84
2022/11/01 23:31:50;;;;;;;;;;;;;;;;;;10456243;28;19901;-81
2022/11/01 23:36:50;;;;;;;;;;;;;;;;;;10409884;28;19952;-82
2022/11/01 23:41:50;;;;;;;;;;;;;;;;;;10363084;28;19928;-80
2022/11/01 23:46:52;;;;;;;;;;;;;;;;;;10361968;28;19917;-81
2022/11/01 23:51:52;;;;;;;;;;;;;;;;;;10355134;28;19921;-80
2022/11/01 23:56:52;;;;;;;;;;;;;;;;;;10383288;28;19931;-80
